General Aviation Weather

Text Reports

Enter one or more of the following location identifiers separated by a space:

Zip Code, Four-Character ICAO or Three-Character IATA airport codes.

METAR - Aviation Routine Weather Report
KSLO - Salem, Illinois
Updated at 7:55 PM GMT on September 17, 2014 (2:55 PM CDT):
METAR KSLO 171955Z AUTO 13005KT 10SM SCT070 BKN080 18/13 A2998 RMK AO2 LTG DSNT N T01830133
TAF - Terminal Area Forecast
KSLO - Salem, Illinois
Updated at 7:55 PM GMT on September 17, 2014 (2:55 PM CDT):
No TAF is currently available for this location.
Decoded:
No decoded TAF is available.
PIREP - Pilot Weather Report
KSLO - Salem, Illinois
Updated at 7:55 PM GMT on September 17, 2014 (2:55 PM CDT):
No PIREP is currently available for this location.
AIRMET - Airmens Meteorological Information
KSLO - Salem, Illinois
Updated at 7:55 PM GMT on September 17, 2014 (2:55 PM CDT):
No AIRMET is currently available for this location.
SIGMET - Significant Meteorological Information
KSLO - Salem, Illinois
Updated at 7:55 PM GMT on September 17, 2014 (2:55 PM CDT):
No SIGMET is currently available for this location.
NOTAM - Notice to Airmen
KSLO - Salem, Illinois
Updated at 7:55 PM GMT on September 17, 2014 (2:55 PM CDT):
No NOTAM is currently available for this location.
Forecast Area
KSLO - Salem, Illinois
Updated at 7:55 PM GMT on September 17, 2014 (2:55 PM CDT):
No NOTAM is currently available for this location.
Aviation Weather Maps